Startpagina
METAR-TAF:

METAR-TAF

Vliegvelden :

Tahiti, Frans-Polynesië

breedte: 17-33S, lengte: 149-37W, hoogte: 2 m

Actueel weer

Dit bericht is 10 minuten geleden gemaakt, om 07:00 UTC
Wind 3 kt uit het oosten, variërend tussen het oostnoordoosten en het zuidoosten
Temperatuur 27°C
Vochtigheid 74%
Druk 1013 hPa
Zicht 10 km of meer
Weinig wolken op 2300 ft

METAR: NTAA 270700Z 10003KT 070V140 9999 FEW023 27/22 Q1013 NOSIG

Tijdstip: 21:10 (07:10 UTC)

Verwachting

Dit bericht is 2 uur en het 10 minuten geleden gemaakt, om 05:00 UTC
Verwachting geldig van 27 om 06 UTC tot 28 om 12 UTC
Wind 5 kt uit variabele richting
Zicht 10 km of meer
Weinig wolken op 2300 ft
Tijdelijke
van 27 om 20 UTC tot 28 om 02 UTC
Wind 8 kt uit het westen

TAF: NTAA 270500Z 2706/2812 VRB05KT 9999 FEW023 TEMPO 2720/2802 27008KT

Waarnemingen en weersverwachtingen van meer dan 4000 vliegvelden (METAR en TAF).

De beschikbare stations zijn de gele en rode punten op de kaart.

Ga met uw muis naar het station om de naam te zien.

Klik dan om waarnemingen en weersverwachtingen te zien.

kaart wijzigen: klik op de groene knoppen met een zwart kruis om in te zoomen, op de groene knop met een streepje om uit te zoomen of op de groene pijlen voor aangrenzende kaarten.


METAR-TAF: